Time;durP1;ratioP1;P1;durP2;ratioP2;P2;SDS_P1;SDS_P2;PMS_P1;PMS_P2;Temp;Humidity;BMP_temperature;BMP_pressure;BME280_temperature;BME280_humidity;BME280_pressure;Samples;Min_cycle;Max_cycle;Signal;HPM_P1;HPM_P2
2023/03/07 00:01:26;;;;;;;21.00;13.10;;;2.10;99.90;;;-141.84;83.27;18862.81;5069217;28;20446;-59
2023/03/07 00:03:55;;;;;;;22.50;14.17;;;2.10;99.90;;;-141.84;83.24;18856.72;5068271;28;20293;-60
2023/03/07 00:06:24;;;;;;;21.87;13.53;;;2.10;99.90;;;-141.84;82.82;18862.81;5068323;28;20226;-59
2023/03/07 00:08:55;;;;;;;18.50;12.50;;;2.20;99.90;;;-141.84;81.33;18870.94;5068962;28;20213;-59
2023/03/07 00:11:23;;;;;;;20.73;13.30;;;2.30;99.90;;;-141.84;81.64;18866.88;5070246;28;20224;-60
2023/03/07 00:13:54;;;;;;;21.53;13.47;;;2.20;99.90;;;-141.84;81.85;18842.50;5070690;28;20227;-59
2023/03/07 00:16:24;;;;;;;20.23;12.70;;;2.30;99.90;;;-141.84;82.39;18850.63;5071218;28;20216;-58
2023/03/07 00:18:54;;;;;;;22.83;12.60;;;2.20;99.90;;;-141.84;81.97;18864.84;5070337;28;20220;-58
2023/03/07 00:21:22;;;;;;;21.67;13.67;;;2.30;99.90;;;-141.84;81.35;18893.28;5070131;28;20662;-58
2023/03/07 00:23:53;;;;;;;19.70;12.83;;;2.30;99.90;;;-141.84;81.07;18842.50;5069637;28;20230;-58
2023/03/07 00:26:23;;;;;;;18.17;11.90;;;2.30;99.90;;;-141.84;80.46;18848.59;5070274;28;20232;-60
2023/03/07 00:28:55;;;;;;;19.03;11.50;;;2.40;99.90;;;-141.84;80.50;18897.34;5070447;28;20189;-60
2023/03/07 00:31:24;;;;;;;19.90;11.97;;;2.40;99.90;;;-141.84;81.22;18858.75;5070688;28;20185;-58
2023/03/07 00:33:52;;;;;;;19.90;12.30;;;2.40;99.90;;;-141.84;80.63;18862.81;5070558;28;20224;-71
2023/03/07 00:36:22;;;;;;;19.00;12.17;;;2.40;99.90;;;-141.84;79.53;18879.06;5070387;28;20235;-71
2023/03/07 00:38:52;;;;;;;19.40;12.10;;;2.40;99.90;;;-141.84;78.85;18870.94;5069993;28;20667;-71
2023/03/07 00:41:22;;;;;;;19.23;11.70;;;2.50;99.90;;;-141.84;79.58;18891.25;5070098;28;20220;-71
2023/03/07 00:43:51;;;;;;;19.80;12.17;;;2.40;99.90;;;-141.84;79.65;18875.00;5070224;28;20649;-70
2023/03/07 00:46:24;;;;;;;20.07;12.40;;;2.40;99.90;;;-141.84;79.51;18883.13;5070707;28;20672;-72
2023/03/07 00:48:53;;;;;;;17.63;11.00;;;2.40;99.90;;;-141.84;79.24;18905.47;5069381;28;20221;-71
2023/03/07 00:51:24;;;;;;;17.63;11.37;;;2.40;99.90;;;-141.84;79.55;18895.31;5070304;28;20259;-71
2023/03/07 00:53:52;;;;;;;17.20;11.63;;;2.40;99.90;;;-141.84;79.97;18864.84;5069939;28;20230;-71
2023/03/07 00:56:23;;;;;;;19.07;11.87;;;2.40;99.90;;;-141.84;79.94;18872.97;5070659;28;20227;-70
2023/03/07 00:58:52;;;;;;;17.73;11.80;;;2.30;99.90;;;-141.84;78.77;18897.34;5070359;28;20204;-58
2023/03/07 01:01:24;;;;;;;18.27;11.77;;;2.40;99.90;;;-141.84;77.87;18893.28;5070791;28;20197;-58
2023/03/07 01:03:54;;;;;;;16.80;11.30;;;2.50;99.90;;;-141.84;78.92;18889.22;5069802;28;20231;-59
2023/03/07 01:06:26;;;;;;;18.50;12.50;;;2.50;99.90;;;-141.84;79.28;18862.81;5070614;28;20234;-59
2023/03/07 01:08:56;;;;;;;16.83;10.87;;;2.50;99.90;;;-141.84;79.08;18897.34;5072326;28;20226;-58
2023/03/07 01:11:25;;;;;;;17.27;11.60;;;2.40;99.90;;;-141.84;79.86;18866.88;5070428;28;20225;-60
2023/03/07 01:13:56;;;;;;;17.83;11.73;;;2.40;99.90;;;-141.84;80.02;18895.31;5070281;28;20208;-59
2023/03/07 01:16:29;;;;;;;17.90;11.23;;;2.30;99.90;;;-141.84;78.95;18838.44;5070596;28;20814;-57
2023/03/07 01:19:00;;;;;;;17.67;12.00;;;2.30;99.90;;;-141.84;79.18;18895.31;5070230;28;20307;-57
2023/03/07 01:21:32;;;;;;;19.20;12.07;;;2.30;99.90;;;-141.84;79.28;18866.88;5069950;28;20245;-59
2023/03/07 01:24:00;;;;;;;19.57;12.57;;;2.30;99.90;;;-141.84;78.46;18899.38;5070234;28;20232;-58
2023/03/07 01:26:31;;;;;;;18.20;11.90;;;2.40;99.90;;;-141.84;79.43;18897.34;5070125;28;20227;-59
2023/03/07 01:29:02;;;;;;;18.23;11.67;;;2.30;99.90;;;-141.84;79.54;18866.88;5070062;28;20251;-59
2023/03/07 01:31:32;;;;;;;20.17;13.23;;;2.40;99.90;;;-141.84;79.95;18885.16;5070357;28;20633;-58
2023/03/07 01:34:02;;;;;;;20.03;12.47;;;2.30;99.90;;;-141.84;79.88;18858.75;5070055;28;20224;-57
2023/03/07 01:36:33;;;;;;;18.03;12.30;;;2.30;99.90;;;-141.84;79.65;18877.03;5069767;28;20708;-58
2023/03/07 01:39:05;;;;;;;18.97;12.60;;;2.40;99.90;;;-141.84;78.60;18887.19;5069618;28;20243;-58
2023/03/07 01:41:35;;;;;;;20.40;12.60;;;2.10;99.90;;;-141.84;78.13;18903.44;5069755;28;20251;-59
2023/03/07 01:44:14;;;;;;;19.33;12.57;;;2.50;99.90;;;-141.84;78.05;18881.09;5070149;28;20197;-57
2023/03/07 01:46:51;;;;;;;19.43;12.17;;;2.50;99.90;;;-141.84;78.38;18903.44;5070182;28;20708;-58
2023/03/07 01:49:26;;;;;;;20.57;12.47;;;2.50;99.90;;;-141.84;77.73;18872.97;5070033;28;20208;-59
2023/03/07 01:52:02;;;;;;;20.33;13.07;;;2.60;99.90;;;-141.84;78.36;18885.16;5069278;28;20735;-56
2023/03/07 01:54:34;;;;;;;20.17;12.57;;;2.50;99.90;;;-141.84;77.99;18866.88;5069253;28;20224;-58
2023/03/07 01:57:04;;;;;;;17.87;12.57;;;2.50;99.90;;;-141.84;77.81;18866.88;5069643;28;20247;-58
2023/03/07 01:59:36;;;;;;;19.27;13.10;;;2.50;99.90;;;-141.84;78.14;18889.22;5069586;28;20233;-60
2023/03/07 02:02:11;;;;;;;18.80;12.30;;;2.50;99.90;;;-141.84;77.82;18885.16;5073358;28;20590;-57
2023/03/07 02:04:45;;;;;;;18.87;12.53;;;2.50;99.90;;;-141.84;76.93;18938.00;5072465;28;20213;-60
2023/03/07 02:07:15;;;;;;;18.83;12.83;;;2.60;99.90;;;-141.84;76.89;18917.66;5073005;28;20247;-57
2023/03/07 02:09:47;;;;;;;18.63;11.90;;;2.60;99.90;;;-141.84;77.00;18887.19;5072443;28;20225;-59
2023/03/07 02:12:16;;;;;;;20.03;14.13;;;2.60;99.90;;;-141.84;76.77;18864.84;5073126;28;20231;-60
2023/03/07 02:14:48;;;;;;;20.50;13.37;;;2.60;99.90;;;-141.84;76.76;18893.28;5072790;28;20311;-58
2023/03/07 02:17:19;;;;;;;17.90;13.00;;;2.60;99.90;;;-141.84;76.75;18885.16;5073307;28;20232;-57
2023/03/07 02:20:10;;;;;;;21.47;13.07;;;2.70;99.90;;;-141.84;75.89;18933.94;5073188;28;20233;-58
2023/03/07 02:22:39;;;;;;;18.33;12.60;;;2.70;99.90;;;-141.84;76.60;18921.75;5073159;28;20215;-58
2023/03/07 02:25:18;;;;;;;18.20;12.70;;;2.70;99.90;;;-141.84;75.77;18921.75;5072386;28;20224;-59
2023/03/07 02:27:49;;;;;;;19.60;12.87;;;2.80;99.90;;;-141.84;76.33;18935.97;5072394;28;20231;-59
2023/03/07 02:30:18;;;;;;;19.47;12.77;;;2.70;99.90;;;-141.84;75.63;18915.63;5072671;28;20224;-58
2023/03/07 02:32:46;;;;;;;18.83;12.97;;;2.80;99.90;;;-141.84;76.42;18917.66;5072816;28;20221;-59
2023/03/07 02:35:18;;;;;;;18.73;13.13;;;2.80;99.90;;;-141.84;75.33;18925.81;5072644;28;20243;-59
2023/03/07 02:37:51;;;;;;;17.90;12.90;;;2.80;99.90;;;-141.84;75.24;18929.88;5060988;28;20211;-59
2023/03/07 02:40:23;;;;;;;19.47;13.20;;;2.80;99.90;;;-141.84;75.38;18931.91;5072760;28;20224;-58
2023/03/07 02:42:57;;;;;;;18.00;13.23;;;2.80;99.90;;;-141.84;75.49;18923.78;5072828;28;20231;-59
2023/03/07 02:45:25;;;;;;;20.67;14.17;;;2.90;99.90;;;-141.84;75.68;18923.78;5054205;28;20227;-59
2023/03/07 02:47:53;;;;;;;18.50;13.03;;;2.80;99.90;;;-141.84;75.54;18927.84;5072315;28;20720;-59
2023/03/07 02:50:21;;;;;;;19.87;13.17;;;3.00;99.90;;;-141.84;75.68;18905.47;5072302;28;20717;-59
2023/03/07 02:52:49;;;;;;;18.93;13.20;;;2.80;99.90;;;-141.84;74.85;18946.13;5072731;28;20205;-59
2023/03/07 02:55:18;;;;;;;17.53;12.13;;;3.00;99.90;;;-141.84;73.52;18909.53;5072438;28;20225;-60
2023/03/07 02:57:46;;;;;;;18.70;12.63;;;2.90;99.90;;;-141.84;72.95;18962.38;5072212;28;20236;-58
2023/03/07 03:00:16;;;;;;;19.07;12.60;;;2.90;99.90;;;-141.84;73.03;18935.97;5071932;28;20320;-59
2023/03/07 03:02:45;;;;;;;17.60;12.93;;;2.90;99.90;;;-141.84;72.62;18950.19;5072348;28;20220;-60
2023/03/07 03:05:13;;;;;;;17.53;13.03;;;3.00;99.90;;;-141.84;73.06;18958.31;5072010;28;20236;-57
2023/03/07 03:07:41;;;;;;;17.33;12.93;;;2.90;99.90;;;-141.84;72.80;18931.91;5072353;28;20213;-60
2023/03/07 03:10:11;;;;;;;18.50;12.97;;;3.00;99.90;;;-141.84;71.94;18923.78;5071411;28;20220;-57
2023/03/07 03:12:39;;;;;;;16.47;11.60;;;3.00;99.90;;;-141.84;71.92;18942.06;5071069;28;20232;-58
2023/03/07 03:15:09;;;;;;;17.97;11.90;;;3.00;99.90;;;-141.84;71.23;18968.47;5072048;28;20232;-56
2023/03/07 03:17:39;;;;;;;17.87;12.50;;;3.00;99.90;;;-141.84;71.86;18954.25;5071858;28;20224;-59
2023/03/07 03:20:11;;;;;;;19.03;11.90;;;3.00;99.90;;;-141.84;70.78;18972.53;5071420;28;20225;-63
2023/03/07 03:22:40;;;;;;;18.53;11.47;;;3.00;99.90;;;-141.84;70.64;18960.34;5072074;28;20193;-59
2023/03/07 03:25:11;;;;;;;16.60;11.53;;;3.00;99.90;;;-141.84;70.43;18976.59;5071288;28;20228;-59
2023/03/07 03:27:40;;;;;;;17.10;11.93;;;3.10;99.90;;;-141.84;70.83;18974.56;5071781;28;20240;-59
2023/03/07 03:30:12;;;;;;;16.37;11.20;;;3.00;99.90;;;-141.84;69.95;18950.19;5071237;28;20307;-59
2023/03/07 03:32:42;;;;;;;16.17;11.83;;;3.00;99.90;;;-141.84;70.13;18978.63;5071345;28;20220;-59
2023/03/07 03:35:11;;;;;;;16.47;12.60;;;3.00;99.90;;;-141.84;70.50;18960.34;5071611;28;20315;-56
2023/03/07 03:37:39;;;;;;;16.97;11.83;;;3.00;99.90;;;-141.84;69.32;18948.16;5071803;28;20216;-59
2023/03/07 03:40:13;;;;;;;16.40;12.00;;;3.10;99.90;;;-141.84;70.04;18972.53;5070616;28;20224;-58
2023/03/07 03:42:42;;;;;;;15.93;11.57;;;3.10;99.90;;;-141.84;69.57;18976.59;5071385;28;20619;-59
2023/03/07 03:45:13;;;;;;;16.70;10.90;;;3.10;99.90;;;-141.84;69.04;18984.72;5071346;28;20224;-58
2023/03/07 03:47:43;;;;;;;16.27;11.40;;;3.10;99.90;;;-141.84;69.06;18956.28;5035923;28;20304;-58
2023/03/07 03:50:12;;;;;;;16.23;11.73;;;3.10;99.90;;;-141.84;69.03;18942.06;5071242;28;20261;-58
2023/03/07 03:52:40;;;;;;;16.53;11.07;;;3.10;99.90;;;-141.84;68.38;18968.47;5071296;28;20698;-59
2023/03/07 03:55:09;;;;;;;15.77;11.60;;;3.10;99.90;;;-141.84;68.74;18964.41;5070454;28;20220;-58
2023/03/07 03:57:37;;;;;;;14.43;10.53;;;3.10;99.90;;;-141.84;69.10;18968.47;5070919;28;20229;-59
2023/03/07 04:00:09;;;;;;;15.93;10.40;;;3.10;99.90;;;-141.84;69.10;18986.75;5070947;28;20232;-58
2023/03/07 04:02:37;;;;;;;14.70;11.20;;;3.00;99.90;;;-141.84;68.97;18968.47;5070865;28;20606;-58
2023/03/07 04:05:09;;;;;;;15.97;11.27;;;3.00;99.90;;;-141.84;69.35;18946.13;5071018;28;20248;-58
2023/03/07 04:07:37;;;;;;;16.13;11.27;;;3.00;99.90;;;-141.84;68.92;19023.34;5071112;28;20228;-58
2023/03/07 04:10:07;;;;;;;16.40;10.97;;;3.00;99.90;;;-141.84;68.24;18986.75;5070292;28;20228;-59
2023/03/07 04:12:35;;;;;;;15.37;10.60;;;3.10;99.90;;;-141.84;68.62;18944.09;5070780;28;20236;-60
2023/03/07 04:15:04;;;;;;;17.57;11.63;;;3.10;99.90;;;-141.84;68.12;18970.50;5070720;28;20230;-58
2023/03/07 04:17:33;;;;;;;16.20;11.60;;;3.10;99.90;;;-141.84;69.34;18960.34;5070612;28;20283;-57
2023/03/07 04:20:01;;;;;;;14.77;10.57;;;3.00;99.90;;;-141.84;69.03;18946.13;5070634;28;20233;-59
2023/03/07 04:22:30;;;;;;;15.37;10.70;;;3.00;99.90;;;-141.84;68.64;18996.91;5070891;28;20211;-60
2023/03/07 04:24:58;;;;;;;15.87;10.60;;;3.00;99.90;;;-141.84;68.59;18988.78;5070318;28;20585;-60
2023/03/07 04:27:26;;;;;;;14.80;10.20;;;3.00;99.90;;;-141.84;68.92;18944.09;5070310;28;20228;-60
2023/03/07 04:29:55;;;;;;;15.60;10.60;;;3.00;99.90;;;-141.84;69.45;18982.69;5070537;28;20229;-59
2023/03/07 04:32:23;;;;;;;15.83;10.03;;;3.00;99.90;;;-141.84;68.05;18986.75;5070240;28;20738;-58
2023/03/07 04:34:51;;;;;;;15.30;10.23;;;3.10;99.90;;;-141.84;68.85;18948.16;5070441;28;20687;-57
2023/03/07 04:37:20;;;;;;;14.33;9.80;;;3.00;99.90;;;-141.84;67.70;19000.97;5071185;28;20251;-58
2023/03/07 04:39:50;;;;;;;13.73;10.10;;;3.10;99.90;;;-141.84;67.60;18972.53;5070016;28;20241;-59
2023/03/07 04:42:18;;;;;;;14.70;9.93;;;3.10;99.90;;;-141.84;67.06;18970.50;5050247;28;20240;-58
2023/03/07 04:44:46;;;;;;;14.67;10.37;;;3.10;99.90;;;-141.84;67.41;19000.97;5050235;28;20258;-59
2023/03/07 04:47:14;;;;;;;15.97;10.37;;;3.10;99.90;;;-141.84;67.53;18974.56;5050335;28;20244;-59
2023/03/07 04:49:42;;;;;;;15.37;10.03;;;3.20;99.90;;;-141.84;67.71;19003.00;5050929;28;20576;-57
2023/03/07 04:52:11;;;;;;;15.70;10.37;;;3.10;99.90;;;-141.84;68.42;18988.78;5059678;28;20216;-59
2023/03/07 04:54:39;;;;;;;14.23;9.80;;;3.00;99.90;;;-141.84;67.47;19000.97;5070061;28;20235;-56
2023/03/07 04:57:09;;;;;;;14.13;9.67;;;3.10;99.90;;;-141.84;67.37;18980.66;5070160;28;20252;-58
2023/03/07 04:59:38;;;;;;;14.90;10.27;;;3.10;99.90;;;-141.84;67.10;18970.50;5070102;28;20233;-59
2023/03/07 05:02:07;;;;;;;13.77;9.60;;;3.40;99.90;;;-141.84;67.52;18972.53;5069971;28;20221;-59
2023/03/07 05:04:35;;;;;;;13.47;9.50;;;3.20;99.90;;;-141.84;67.52;18996.91;5070695;28;20572;-60
2023/03/07 05:07:04;;;;;;;14.07;9.77;;;3.20;99.90;;;-141.84;67.84;18970.50;5069914;28;20651;-59
2023/03/07 05:09:32;;;;;;;13.33;9.97;;;3.20;99.90;;;-141.84;68.17;18970.50;5070160;28;20225;-57
2023/03/07 05:12:00;;;;;;;14.87;10.10;;;3.20;99.90;;;-141.84;67.50;18990.81;5071453;28;20236;-59
2023/03/07 05:14:30;;;;;;;15.10;9.70;;;3.20;99.90;;;-141.84;67.78;19013.16;5070950;28;20476;-58
2023/03/07 05:16:58;;;;;;;15.27;11.17;;;3.20;99.90;;;-141.84;67.64;18996.91;5069859;28;20209;-60
2023/03/07 05:19:26;;;;;;;15.17;9.83;;;3.20;99.90;;;-141.84;68.89;18976.59;5070306;28;20207;-59
2023/03/07 05:21:54;;;;;;;13.87;9.40;;;3.20;99.90;;;-141.84;68.15;18984.72;5069766;28;20607;-60
2023/03/07 05:24:23;;;;;;;14.97;9.77;;;3.20;99.90;;;-141.84;68.13;18972.53;5070034;28;20236;-59
2023/03/07 05:26:51;;;;;;;13.23;9.37;;;3.20;99.90;;;-141.84;68.49;18968.47;5069017;28;20217;-58
2023/03/07 05:29:19;;;;;;;12.97;9.07;;;3.10;99.90;;;-141.84;68.77;18984.72;5070143;28;20225;-59
2023/03/07 05:31:49;;;;;;;12.23;8.77;;;3.20;99.90;;;-141.84;69.11;18974.56;5070320;28;20215;-59
2023/03/07 05:34:17;;;;;;;11.80;8.53;;;3.10;99.90;;;-141.84;69.19;19011.13;5070204;28;20219;-59
2023/03/07 05:36:45;;;;;;;11.97;8.50;;;3.10;99.90;;;-141.84;68.29;18984.72;5073009;28;20225;-59
2023/03/07 05:39:15;;;;;;;12.77;9.27;;;3.20;99.90;;;-141.84;69.07;18976.59;5073221;28;20231;-58
2023/03/07 05:41:43;;;;;;;15.07;10.87;;;3.20;99.90;;;-141.84;69.07;18984.72;5073609;28;20257;-59
2023/03/07 05:44:11;;;;;;;12.13;7.93;;;3.20;99.90;;;-141.84;69.50;19005.03;5073588;28;20221;-59
2023/03/07 05:46:39;;;;;;;11.57;8.30;;;3.30;99.90;;;-141.84;69.89;18992.84;5074158;28;20230;-58
2023/03/07 05:49:09;;;;;;;10.37;7.80;;;3.20;99.90;;;-141.84;68.92;19021.31;5072911;28;20233;-60
2023/03/07 05:51:37;;;;;;;10.10;7.80;;;3.30;99.90;;;-141.84;69.57;18976.59;5073261;28;20582;-58
2023/03/07 05:54:05;;;;;;;9.50;6.37;;;3.30;99.90;;;-141.84;69.58;19011.13;5072869;28;20232;-59
2023/03/07 05:56:33;;;;;;;10.57;7.90;;;3.30;99.90;;;-141.84;69.72;18968.47;5073145;28;20232;-58
2023/03/07 05:59:01;;;;;;;9.83;7.37;;;3.30;99.90;;;-141.84;68.94;19015.19;5073202;28;20661;-58
2023/03/07 06:01:30;;;;;;;8.87;6.67;;;3.40;99.90;;;-141.84;68.89;18994.88;5073657;28;20236;-60
2023/03/07 06:03:58;;;;;;;9.77;6.77;;;3.50;99.90;;;-141.84;69.05;19047.72;5072663;28;20226;-57
2023/03/07 06:06:27;;;;;;;10.97;7.80;;;3.50;99.90;;;-141.84;69.38;19015.19;5073031;28;20249;-60
2023/03/07 06:08:56;;;;;;;7.80;5.87;;;3.60;99.90;;;-141.84;69.69;19003.00;5072653;28;20491;-59
2023/03/07 06:11:24;;;;;;;8.27;6.27;;;3.50;99.90;;;-141.84;69.62;19021.31;5072557;28;20212;-60
2023/03/07 06:13:53;;;;;;;8.33;6.43;;;3.60;99.90;;;-141.84;69.76;18984.72;5073036;28;20205;-59
2023/03/07 06:16:21;;;;;;;8.77;6.30;;;3.60;99.90;;;-141.84;69.67;19015.19;5073579;28;20199;-59
2023/03/07 06:18:49;;;;;;;10.03;7.47;;;3.60;99.90;;;-141.84;69.26;19021.31;5072494;28;20676;-58
2023/03/07 06:21:19;;;;;;;8.70;6.13;;;3.70;99.90;;;-141.84;69.09;19013.16;5072592;28;20233;-59
2023/03/07 06:23:48;;;;;;;8.50;6.20;;;3.80;99.90;;;-141.84;69.26;19025.38;5072407;28;20217;-56
2023/03/07 06:26:17;;;;;;;8.87;6.20;;;3.90;99.90;;;-141.84;69.16;19055.84;5072543;28;20225;-57
2023/03/07 06:28:45;;;;;;;9.83;6.47;;;3.90;99.90;;;-141.84;70.01;19033.50;5072940;28;20206;-58
2023/03/07 06:31:16;;;;;;;8.77;6.00;;;3.90;99.90;;;-141.84;69.90;18994.88;5072425;28;20226;-56
2023/03/07 06:33:46;;;;;;;8.33;5.93;;;3.90;99.90;;;-141.84;69.67;19049.75;5072502;28;20664;-57
2023/03/07 06:36:17;;;;;;;7.83;6.00;;;3.90;99.90;;;-141.84;69.97;19031.47;5072625;28;20583;-57
2023/03/07 06:38:46;;;;;;;8.57;6.33;;;3.90;99.90;;;-141.84;70.71;19009.09;5072633;28;20248;-55
2023/03/07 06:41:16;;;;;;;8.80;6.60;;;3.90;99.90;;;-141.84;70.47;18996.91;5072027;28;20736;-57
2023/03/07 06:43:44;;;;;;;9.67;5.87;;;3.80;99.90;;;-141.84;70.29;19049.75;5072208;28;20206;-57
2023/03/07 06:46:12;;;;;;;8.07;5.87;;;3.90;99.90;;;-141.84;70.24;19049.75;5071499;28;20226;-59
2023/03/07 06:48:40;;;;;;;7.17;5.60;;;3.80;99.90;;;-141.84;70.22;19000.97;5071545;28;20229;-58
2023/03/07 06:51:10;;;;;;;7.60;5.50;;;3.90;99.90;;;-141.84;70.46;19045.69;5072223;28;20238;-58
2023/03/07 06:53:39;;;;;;;7.07;5.43;;;3.90;99.90;;;-141.84;69.94;19039.59;5071875;28;20628;-57
2023/03/07 06:56:08;;;;;;;7.90;6.03;;;3.90;99.90;;;-141.84;70.06;19025.38;5072082;28;20203;-57
2023/03/07 06:58:37;;;;;;;7.87;5.70;;;3.90;99.90;;;-141.84;69.56;19039.59;5072112;28;20697;-59
2023/03/07 07:01:06;;;;;;;6.93;5.47;;;4.10;99.90;;;-141.84;69.27;19035.53;5072122;28;20741;-58
2023/03/07 07:03:34;;;;;;;6.73;5.33;;;4.10;99.90;;;-141.84;69.29;19057.88;5071802;28;20238;-57
2023/03/07 07:06:02;;;;;;;7.53;6.10;;;4.10;99.90;;;-141.84;69.55;19029.44;5071969;28;20279;-58
2023/03/07 07:08:31;;;;;;;6.20;5.07;;;4.10;99.90;;;-141.84;69.17;19063.97;5071245;28;20227;-59
2023/03/07 07:10:59;;;;;;;6.93;5.30;;;4.10;99.90;;;-141.84;68.99;19076.16;5036185;28;20195;-58
2023/03/07 07:13:27;;;;;;;8.50;5.97;;;4.20;99.90;;;-141.84;69.30;19041.63;5072616;28;20202;-70
2023/03/07 07:16:00;;;;;;;7.23;5.07;;;4.20;99.90;;;-141.84;69.33;19076.16;5072203;28;20235;-69
2023/03/07 07:18:28;;;;;;;6.90;4.97;;;4.20;99.90;;;-141.84;68.78;19086.31;5072308;28;20230;-70
2023/03/07 07:20:56;;;;;;;6.57;5.33;;;4.30;99.90;;;-141.84;68.66;19080.22;5072176;28;20756;-70
2023/03/07 07:23:25;;;;;;;7.13;5.20;;;4.30;99.90;;;-141.84;68.62;19043.66;5071906;28;20248;-71
2023/03/07 07:25:54;;;;;;;6.07;4.77;;;4.30;99.90;;;-141.84;68.22;19072.09;5072220;28;20225;-69
2023/03/07 07:28:22;;;;;;;7.07;5.23;;;4.40;99.90;;;-141.84;68.21;19102.56;5072036;28;20688;-72
2023/03/07 07:30:51;;;;;;;7.70;5.40;;;4.40;99.90;;;-141.84;68.36;19049.75;5071744;28;20248;-69
2023/03/07 07:33:20;;;;;;;7.07;5.63;;;4.40;99.90;;;-141.84;67.87;19066.00;5071941;28;20306;-71
2023/03/07 07:35:48;;;;;;;6.10;5.10;;;4.50;99.90;;;-141.84;68.53;19090.38;5071781;28;20223;-70
2023/03/07 07:38:17;;;;;;;6.47;5.20;;;4.50;99.90;;;-141.84;67.37;19108.69;5071910;28;20600;-69
2023/03/07 07:40:45;;;;;;;6.40;5.30;;;4.50;99.90;;;-141.84;67.96;19098.50;5073163;28;20212;-71
2023/03/07 07:43:16;;;;;;;6.43;5.10;;;4.50;99.90;;;-141.84;67.14;19108.69;5072791;28;20585;-71
2023/03/07 07:45:44;;;;;;;5.83;4.53;;;4.70;99.90;;;-141.84;66.97;19059.91;5071588;28;20731;-71
2023/03/07 07:48:13;;;;;;;8.03;4.67;;;4.80;99.90;;;-141.84;66.49;19106.66;5071640;28;20221;-71
2023/03/07 07:50:42;;;;;;;5.77;4.50;;;4.80;99.90;;;-141.84;66.21;19112.75;5071759;28;20234;-71
2023/03/07 07:53:11;;;;;;;6.83;4.73;;;4.80;99.90;;;-141.84;66.35;19116.81;5071539;28;20238;-69
2023/03/07 07:55:39;;;;;;;6.90;4.97;;;4.90;99.90;;;-141.84;66.42;19076.16;5071848;28;20210;-71
2023/03/07 07:58:07;;;;;;;5.67;4.50;;;4.80;99.90;;;-141.84;66.03;19118.84;5070835;28;20238;-70
2023/03/07 08:00:35;;;;;;;6.00;4.50;;;4.90;99.90;;;-141.84;66.06;19143.22;5071057;28;20729;-69
2023/03/07 08:03:06;;;;;;;5.97;4.60;;;5.00;99.90;;;-141.84;65.53;19131.03;5071086;28;20576;-70
2023/03/07 08:05:34;;;;;;;7.07;4.10;;;5.00;99.90;;;-141.84;65.06;19147.28;5071211;28;20227;-70
2023/03/07 08:08:04;;;;;;;5.60;4.30;;;5.10;99.90;;;-141.84;64.76;19147.28;5071167;28;20218;-70
2023/03/07 08:10:32;;;;;;;6.03;4.70;;;5.10;99.90;;;-141.84;64.50;19145.25;5070823;28;20204;-70
2023/03/07 08:13:01;;;;;;;5.40;4.00;;;5.20;99.90;;;-141.84;64.57;19135.09;5071105;28;20219;-72
2023/03/07 08:15:29;;;;;;;4.53;3.80;;;5.20;99.90;;;-141.84;64.69;19147.28;5070466;28;20238;-73
2023/03/07 08:17:58;;;;;;;5.03;3.90;;;5.20;99.90;;;-141.84;64.53;19137.13;5070978;28;20234;-70
2023/03/07 08:20:27;;;;;;;5.17;4.03;;;5.30;99.90;;;-141.84;64.31;19126.97;5070527;28;20227;-70
2023/03/07 08:22:55;;;;;;;5.43;4.30;;;5.30;99.90;;;-141.84;64.55;19157.44;5070576;28;20232;-71
2023/03/07 08:25:25;;;;;;;5.60;4.20;;;5.30;99.90;;;-141.84;64.66;19147.28;5071071;28;20208;-71
2023/03/07 08:27:55;;;;;;;4.83;3.73;;;5.30;99.90;;;-141.84;64.37;19185.88;5070787;28;20235;-70
2023/03/07 08:30:27;;;;;;;5.03;3.80;;;5.40;99.90;;;-141.84;64.15;19183.84;5070733;28;20226;-71
2023/03/07 08:32:56;;;;;;;4.93;4.13;;;5.50;99.90;;;-141.84;62.96;19187.91;5070791;28;20230;-70
2023/03/07 08:35:28;;;;;;;4.43;3.90;;;5.60;99.90;;;-141.84;63.17;19204.19;5070470;28;20224;-70
2023/03/07 08:37:59;;;;;;;5.07;4.20;;;5.70;99.90;;;-141.84;63.08;19200.13;5070061;28;20234;-71
2023/03/07 08:40:30;;;;;;;6.63;4.20;;;5.80;99.90;;;-141.84;63.74;19204.19;5070746;28;20220;-71
2023/03/07 08:42:59;;;;;;;4.87;3.87;;;5.70;99.90;;;-141.84;63.19;19238.72;5070179;28;20540;-70
2023/03/07 08:45:27;;;;;;;4.67;4.07;;;5.80;99.90;;;-141.84;63.30;19198.09;5070344;28;20239;-70
2023/03/07 08:47:56;;;;;;;4.47;3.67;;;5.90;99.90;;;-141.84;63.19;19204.19;5070554;28;20690;-69
2023/03/07 08:50:28;;;;;;;4.87;4.37;;;5.90;99.90;;;-141.84;62.90;19204.19;5070216;28;20235;-70
2023/03/07 08:52:56;;;;;;;5.40;4.37;;;6.00;99.90;;;-141.84;62.85;19226.53;5070157;28;20279;-71
2023/03/07 08:55:25;;;;;;;5.30;4.63;;;6.00;99.90;;;-141.84;62.63;19220.44;5070942;28;20589;-70
2023/03/07 08:57:55;;;;;;;4.77;4.17;;;6.10;99.90;;;-141.84;62.79;19230.59;5070240;28;20227;-71
2023/03/07 09:00:24;;;;;;;6.10;4.40;;;6.10;99.90;;;-141.84;63.12;19230.59;5070519;28;20238;-70
2023/03/07 09:02:53;;;;;;;6.63;4.60;;;6.00;99.90;;;-141.84;63.47;19220.44;5070452;28;20231;-71
2023/03/07 09:05:21;;;;;;;5.80;4.80;;;6.10;99.90;;;-141.84;63.42;19220.44;5070513;28;20327;-70
2023/03/07 09:07:49;;;;;;;5.27;4.30;;;6.10;99.90;;;-141.84;62.93;19224.50;5063347;28;20212;-70
2023/03/07 09:10:19;;;;;;;5.67;4.47;;;6.10;99.90;;;-141.84;62.93;19228.56;5071540;28;20216;-70
2023/03/07 09:12:49;;;;;;;5.03;4.50;;;6.20;99.90;;;-141.84;62.98;19244.81;5074258;28;20742;-69
2023/03/07 09:15:19;;;;;;;5.30;4.23;;;6.20;99.90;;;-141.84;63.24;19224.50;5074360;28;20235;-71
2023/03/07 09:17:47;;;;;;;5.63;4.80;;;6.20;99.90;;;-141.84;62.32;19240.75;5074288;28;20220;-70
2023/03/07 09:20:16;;;;;;;5.27;4.23;;;6.40;99.90;;;-141.84;62.23;19295.63;5074352;28;20235;-70
2023/03/07 09:22:45;;;;;;;6.80;4.50;;;6.40;99.90;;;-141.84;62.21;19236.69;5074568;28;20212;-70
2023/03/07 09:25:14;;;;;;;6.10;4.53;;;6.50;99.90;;;-141.84;62.05;19267.16;5073993;28;20623;-71
2023/03/07 09:27:44;;;;;;;5.97;5.00;;;6.50;99.90;;;-141.84;61.81;19273.28;5074074;28;20562;-70
2023/03/07 09:30:14;;;;;;;6.80;4.80;;;6.70;99.90;;;-141.84;61.75;19293.59;5074244;28;20235;-69
2023/03/07 09:32:44;;;;;;;6.60;4.83;;;6.80;99.90;;;-141.84;60.77;19366.75;5073619;28;20221;-70
2023/03/07 09:35:12;;;;;;;7.80;5.03;;;6.90;99.90;;;-141.84;60.35;19295.63;5074172;28;20230;-70
2023/03/07 09:37:40;;;;;;;6.57;5.07;;;6.90;99.90;;;-141.84;60.93;19326.09;5084739;28;20204;-58
2023/03/07 09:40:18;;;;;;;6.30;5.67;;;7.00;99.90;;;-141.84;62.02;19293.59;5073358;28;20231;-59
2023/03/07 09:43:01;;;;;;;6.63;5.07;;;6.80;99.90;;;-141.84;62.46;19273.28;5073919;28;20236;-58
2023/03/07 09:45:45;;;;;;;6.47;5.43;;;6.70;99.90;;;-141.84;62.60;19313.91;5073641;28;20232;-59
2023/03/07 09:49:07;;;;;;;6.03;5.23;;;6.70;99.90;;;-141.84;61.90;19269.22;5041308;28;20255;-58
2023/03/07 09:51:39;;;;;;;6.13;5.30;;;6.70;99.90;;;-141.84;62.65;19305.78;5073273;28;20312;-58
2023/03/07 09:54:14;;;;;;;6.03;5.17;;;6.70;99.90;;;-141.84;61.74;19277.34;5073533;28;20217;-59
2023/03/07 09:56:47;;;;;;;7.57;5.87;;;6.70;99.90;;;-141.84;61.97;19297.66;5073144;28;20600;-56
2023/03/07 09:59:23;;;;;;;5.87;4.77;;;6.80;99.90;;;-141.84;61.82;19313.91;5073526;28;20224;-58
2023/03/07 10:02:05;;;;;;;7.50;5.73;;;6.80;99.90;;;-141.84;61.88;19317.97;5073513;28;20185;-58
2023/03/07 10:04:46;;;;;;;6.07;5.30;;;6.90;99.90;;;-141.84;61.89;19291.56;5073501;28;20200;-58
2023/03/07 10:07:19;;;;;;;7.07;5.83;;;6.90;99.90;;;-141.84;63.13;19281.41;5070086;28;20726;-59
2023/03/07 10:09:50;;;;;;;6.33;5.70;;;6.80;99.90;;;-141.84;63.74;19271.25;5060115;28;20232;-71
2023/03/07 10:12:56;;;;;;;8.60;5.47;;;6.60;99.90;;;-141.84;63.75;19242.78;5073193;28;20232;-71
2023/03/07 10:15:44;;;;;;;7.57;5.80;;;6.50;99.90;;;-141.84;64.71;19234.66;5073226;28;20227;-72
2023/03/07 10:18:50;;;;;;;9.20;5.93;;;6.40;99.90;;;-141.84;65.21;19224.50;5073119;28;20279;-71